Time;durP1;ratioP1;P1;durP2;ratioP2;P2;SDS_P1;SDS_P2;PMS_P1;PMS_P2;Temp;Humidity;BMP_temperature;BMP_pressure;BME280_temperature;BME280_humidity;BME280_pressure;Samples;Min_cycle;Max_cycle;Signal;HPM_P1;HPM_P2
2023/09/02 00:00:41;;;;;;;20.50;8.68;;;14.80;99.90;;;;;;5038759;28;20491;-59
2023/09/02 00:03:06;;;;;;;18.40;9.23;;;14.80;99.90;;;;;;5039794;28;20096;-59
2023/09/02 00:05:32;;;;;;;19.77;8.48;;;14.80;99.90;;;;;;5043263;28;20060;-58
2023/09/02 00:07:57;;;;;;;18.55;8.40;;;14.80;99.90;;;;;;5038589;28;20143;-60
2023/09/02 00:10:23;;;;;;;15.68;7.57;;;14.80;99.90;;;;;;5035413;28;20071;-59
2023/09/02 00:12:48;;;;;;;17.73;9.02;;;14.80;99.90;;;;;;5045398;28;20034;-59
2023/09/02 00:15:14;;;;;;;17.25;7.90;;;14.80;99.90;;;;;;5037226;28;20029;-59
2023/09/02 00:17:40;;;;;;;17.95;7.68;;;14.70;99.90;;;;;;5040976;28;20028;-59
2023/09/02 00:20:07;;;;;;;27.17;8.95;;;14.70;99.90;;;;;;5039299;28;20052;-59
2023/09/02 00:22:33;;;;;;;19.17;8.85;;;14.70;99.90;;;;;;5039534;28;20025;-60
2023/09/02 00:24:59;;;;;;;18.55;8.40;;;14.70;99.90;;;;;;5041587;28;20695;-60
2023/09/02 00:27:25;;;;;;;20.45;8.95;;;14.70;99.90;;;;;;5044503;28;20483;-59
2023/09/02 00:29:50;;;;;;;13.98;7.45;;;14.70;99.90;;;;;;5035951;28;20025;-59
2023/09/02 00:32:16;;;;;;;11.15;7.50;;;14.70;99.90;;;;;;5040962;28;20025;-59
2023/09/02 00:34:42;;;;;;;14.02;8.02;;;14.70;99.90;;;;;;5042709;28;20478;-60
2023/09/02 00:37:07;;;;;;;15.90;7.25;;;14.60;99.90;;;;;;5048273;28;20079;-60
2023/09/02 00:39:33;;;;;;;18.35;7.43;;;14.60;99.90;;;;;;5043331;28;20556;-59
2023/09/02 00:42:00;;;;;;;14.52;7.70;;;14.60;99.90;;;;;;5037265;28;20029;-60
2023/09/02 00:44:26;;;;;;;11.32;6.45;;;14.60;99.90;;;;;;5039300;28;20115;-60
2023/09/02 00:46:52;;;;;;;19.08;8.00;;;14.60;99.90;;;;;;5047986;28;20032;-59
2023/09/02 00:49:18;;;;;;;13.73;7.30;;;14.60;99.90;;;;;;5048277;28;20116;-57
2023/09/02 00:51:43;;;;;;;15.15;9.07;;;14.60;99.90;;;;;;5042902;28;20402;-59
2023/09/02 00:54:09;;;;;;;12.55;6.78;;;14.60;99.90;;;;;;5043554;28;20037;-60
2023/09/02 00:56:37;;;;;;;14.63;6.75;;;14.60;99.90;;;;;;5035709;28;20030;-59
2023/09/02 00:59:04;;;;;;;10.85;5.97;;;14.60;99.90;;;;;;5041312;28;20029;-60
2023/09/02 01:01:33;;;;;;;15.00;7.25;;;14.70;99.90;;;;;;5040002;28;20052;-58
2023/09/02 01:03:59;;;;;;;16.52;7.88;;;14.60;99.90;;;;;;5040205;28;20026;-58
2023/09/02 01:06:25;;;;;;;16.70;8.10;;;14.60;99.90;;;;;;5048426;28;20041;-60
2023/09/02 01:08:51;;;;;;;18.15;7.88;;;14.60;99.90;;;;;;5037182;28;20036;-59
2023/09/02 01:11:17;;;;;;;12.00;6.60;;;14.60;99.90;;;;;;5043951;28;20021;-60
2023/09/02 01:13:43;;;;;;;20.50;7.80;;;14.60;99.90;;;;;;5039699;28;20094;-60
2023/09/02 01:16:08;;;;;;;17.60;8.52;;;14.50;99.90;;;;;;5037808;28;20026;-59
2023/09/02 01:18:36;;;;;;;17.45;7.85;;;14.50;99.90;;;;;;5041760;28;20483;-59
2023/09/02 01:21:26;;;;;;;22.95;8.75;;;14.50;99.90;;;;;;5041211;28;20078;-60
2023/09/02 01:24:10;;;;;;;16.13;9.10;;;14.50;99.90;;;;;;5046960;28;20037;-60
2023/09/02 01:26:48;;;;;;;16.45;8.27;;;14.50;99.90;;;;;;5045607;28;20124;-60
2023/09/02 01:29:19;;;;;;;19.05;8.52;;;14.50;99.90;;;;;;5034463;28;20419;-59
2023/09/02 01:31:47;;;;;;;17.73;8.48;;;14.50;99.90;;;;;;5037955;28;20028;-60
2023/09/02 01:34:15;;;;;;;16.35;8.38;;;14.50;99.90;;;;;;5037269;28;20067;-60
2023/09/02 01:36:46;;;;;;;14.07;8.50;;;14.50;99.90;;;;;;5050916;28;20112;-60
2023/09/02 01:39:14;;;;;;;21.77;9.27;;;14.50;99.90;;;;;;5040375;28;20120;-60
2023/09/02 01:41:41;;;;;;;20.60;9.57;;;14.40;99.90;;;;;;5041653;28;20025;-59
2023/09/02 01:44:08;;;;;;;16.90;9.85;;;14.50;99.90;;;;;;5040092;28;20442;-60
2023/09/02 01:46:34;;;;;;;23.58;10.02;;;14.50;99.90;;;;;;5039218;28;20061;-60
2023/09/02 01:49:00;;;;;;;17.48;10.13;;;14.40;99.90;;;;;;5043319;28;20024;-58
2023/09/02 01:51:27;;;;;;;14.57;8.95;;;14.40;99.90;;;;;;5041455;28;20083;-60
2023/09/02 01:53:52;;;;;;;17.48;10.00;;;14.40;99.90;;;;;;5035661;28;20017;-60
2023/09/02 01:56:19;;;;;;;15.40;9.20;;;14.40;99.90;;;;;;5041350;28;20079;-60
2023/09/02 01:58:45;;;;;;;19.02;9.93;;;14.40;99.90;;;;;;5038418;28;20036;-59
2023/09/02 02:01:11;;;;;;;22.63;10.38;;;14.40;99.90;;;;;;5039876;28;20025;-60
2023/09/02 02:03:50;;;;;;;23.52;11.15;;;14.40;99.90;;;;;;5037730;28;20047;-58
2023/09/02 02:06:18;;;;;;;14.70;9.32;;;14.30;99.90;;;;;;5041776;28;20021;-59
2023/09/02 02:08:50;;;;;;;24.60;10.07;;;14.40;99.90;;;;;;5036780;28;20029;-59
2023/09/02 02:11:16;;;;;;;18.02;10.27;;;14.40;99.90;;;;;;5037581;28;20025;-59
2023/09/02 02:13:42;;;;;;;27.25;12.30;;;14.40;99.90;;;;;;5040405;28;20017;-56
2023/09/02 02:16:08;;;;;;;19.33;10.13;;;14.40;99.90;;;;;;5039463;28;20147;-60
2023/09/02 02:18:33;;;;;;;24.02;10.15;;;14.40;99.90;;;;;;5037959;28;20116;-58
2023/09/02 02:21:02;;;;;;;28.17;10.88;;;14.40;99.90;;;;;;5040016;28;20029;-59
2023/09/02 02:23:28;;;;;;;19.15;10.52;;;14.40;99.90;;;;;;5040893;28;20041;-59
2023/09/02 02:26:02;;;;;;;17.27;9.80;;;14.40;99.90;;;;;;5046801;28;20155;-59
2023/09/02 02:28:31;;;;;;;18.08;9.45;;;14.40;99.90;;;;;;5038337;28;20032;-59
2023/09/02 02:30:58;;;;;;;23.48;9.70;;;14.40;99.90;;;;;;5040508;28;20033;-59
2023/09/02 02:33:24;;;;;;;22.40;9.63;;;14.50;99.90;;;;;;5039633;28;20059;-59
2023/09/02 02:35:50;;;;;;;15.25;9.18;;;14.40;99.90;;;;;;5046000;28;20036;-59
2023/09/02 02:38:15;;;;;;;15.57;8.98;;;14.40;99.90;;;;;;5039488;28;20085;-56
2023/09/02 02:40:41;;;;;;;18.10;9.27;;;14.40;99.90;;;;;;5038288;28;20048;-58
2023/09/02 02:43:06;;;;;;;11.38;7.82;;;14.50;99.90;;;;;;5042338;28;20029;-58
2023/09/02 02:45:32;;;;;;;15.90;9.38;;;14.50;99.90;;;;;;5042348;28;20128;-58
2023/09/02 02:47:58;;;;;;;19.80;9.77;;;14.40;99.90;;;;;;5045993;28;20486;-60
2023/09/02 02:50:23;;;;;;;21.15;9.45;;;14.40;99.90;;;;;;5049927;28;20041;-60
2023/09/02 02:52:50;;;;;;;19.63;8.05;;;14.40;99.90;;;;;;5048295;28;20100;-60
2023/09/02 02:55:15;;;;;;;16.63;8.98;;;14.50;99.90;;;;;;5040486;28;20044;-60
2023/09/02 02:57:41;;;;;;;13.43;8.68;;;14.50;99.90;;;;;;5036673;28;20103;-60
2023/09/02 03:00:10;;;;;;;21.48;9.65;;;14.50;99.90;;;;;;5039167;28;20061;-60
2023/09/02 03:02:36;;;;;;;21.67;9.65;;;14.50;99.90;;;;;;5041257;28;20025;-60
2023/09/02 03:05:02;;;;;;;17.10;9.10;;;14.50;99.90;;;;;;5045146;28;20040;-59
2023/09/02 03:07:28;;;;;;;17.95;9.65;;;14.50;99.90;;;;;;5042691;28;20029;-59
2023/09/02 03:09:53;;;;;;;15.15;9.43;;;14.60;99.90;;;;;;5046955;28;20479;-60
2023/09/02 03:12:19;;;;;;;19.05;11.10;;;14.60;99.90;;;;;;5042427;28;20431;-59
2023/09/02 03:14:46;;;;;;;19.77;9.88;;;14.60;99.90;;;;;;5044103;28;20033;-59
2023/09/02 03:17:12;;;;;;;22.40;9.88;;;14.70;99.90;;;;;;5041419;28;20028;-60
2023/09/02 03:19:42;;;;;;;15.75;9.80;;;14.70;99.90;;;;;;5047987;28;20377;-60
2023/09/02 03:22:08;;;;;;;16.17;9.73;;;14.70;99.90;;;;;;5038760;28;20118;-59
2023/09/02 03:24:33;;;;;;;19.00;9.52;;;14.70;99.90;;;;;;5035438;28;20503;-58
2023/09/02 03:26:59;;;;;;;20.48;10.23;;;14.70;99.90;;;;;;5042340;28;20049;-59
2023/09/02 03:29:25;;;;;;;16.92;9.45;;;14.70;99.90;;;;;;5039116;28;20503;-59
2023/09/02 03:31:51;;;;;;;16.05;8.60;;;14.60;99.90;;;;;;5041357;28;20030;-59
2023/09/02 03:34:16;;;;;;;19.30;10.50;;;14.70;99.90;;;;;;5042779;28;20048;-58
2023/09/02 03:36:42;;;;;;;19.77;10.10;;;14.60;99.90;;;;;;5044256;28;20106;-60
2023/09/02 03:39:07;;;;;;;19.80;10.05;;;14.60;99.90;;;;;;5048804;28;20020;-57
2023/09/02 03:41:37;;;;;;;15.48;9.18;;;14.60;99.90;;;;;;5046707;28;20021;-58
2023/09/02 03:44:03;;;;;;;18.13;9.50;;;14.60;99.90;;;;;;5041249;28;20106;-60
2023/09/02 03:46:29;;;;;;;16.00;9.35;;;14.60;99.90;;;;;;5037029;28;20082;-59
2023/09/02 03:48:55;;;;;;;17.55;9.32;;;14.60;99.90;;;;;;5039198;28;20033;-60
2023/09/02 03:51:20;;;;;;;19.67;8.60;;;14.70;99.90;;;;;;5034999;28;20075;-59
2023/09/02 03:53:46;;;;;;;16.90;9.05;;;14.70;99.90;;;;;;5041748;28;20061;-58
2023/09/02 03:56:12;;;;;;;17.33;9.40;;;14.80;99.90;;;;;;5036002;28;20037;-60
2023/09/02 03:58:38;;;;;;;19.20;10.32;;;14.80;99.90;;;;;;5040087;28;20064;-59
2023/09/02 04:01:04;;;;;;;20.92;9.77;;;14.80;99.90;;;;;;5036363;28;20110;-57
2023/09/02 04:03:35;;;;;;;18.48;10.35;;;14.80;99.90;;;;;;5043610;28;20025;-59
2023/09/02 04:06:01;;;;;;;23.73;11.18;;;14.80;99.90;;;;;;5038238;28;20025;-57
2023/09/02 04:08:26;;;;;;;30.90;12.25;;;14.90;99.90;;;;;;5042959;28;20025;-59
2023/09/02 04:10:53;;;;;;;37.75;12.55;;;15.00;99.90;;;;;;5042572;28;20021;-59
2023/09/02 04:13:24;;;;;;;31.83;13.10;;;15.00;99.90;;;;;;5046036;28;20032;-58
2023/09/02 04:16:00;;;;;;;44.53;15.60;;;15.00;99.90;;;;;;5038684;28;20655;-59
2023/09/02 04:18:26;;;;;;;52.95;16.48;;;15.00;99.90;;;;;;5039665;28;20510;-60
2023/09/02 04:20:52;;;;;;;47.58;16.23;;;15.00;99.90;;;;;;5043744;28;20029;-57
2023/09/02 04:23:21;;;;;;;41.47;14.93;;;15.10;99.90;;;;;;5039775;28;20017;-59
2023/09/02 04:25:49;;;;;;;49.15;16.95;;;15.10;99.90;;;;;;5044512;28;20075;-60
2023/09/02 04:28:15;;;;;;;44.85;15.93;;;15.10;99.90;;;;;;5040036;28;20586;-59
2023/09/02 04:30:42;;;;;;;45.00;16.13;;;15.10;99.90;;;;;;5038950;28;20041;-56
2023/09/02 04:33:08;;;;;;;49.40;16.25;;;15.00;99.90;;;;;;5045085;28;20028;-59
2023/09/02 04:35:41;;;;;;;45.25;17.85;;;15.10;99.90;;;;;;5041334;28;20402;-56
2023/09/02 04:38:07;;;;;;;44.33;17.48;;;15.10;99.90;;;;;;5042526;28;20033;-59
2023/09/02 04:40:43;;;;;;;53.60;17.38;;;15.10;99.90;;;;;;5041778;28;20451;-57
2023/09/02 04:43:10;;;;;;;47.88;17.92;;;15.10;99.90;;;;;;5037594;28;20068;-60
2023/09/02 04:45:38;;;;;;;45.72;17.92;;;15.20;99.90;;;;;;5045374;28;20029;-59
2023/09/02 04:48:04;;;;;;;43.90;16.60;;;15.10;99.90;;;;;;5035020;28;20037;-59
2023/09/02 04:50:34;;;;;;;51.15;18.67;;;15.20;99.90;;;;;;5040268;28;20038;-58
2023/09/02 04:53:00;;;;;;;52.33;17.30;;;15.20;99.90;;;;;;5035619;28;20480;-58
2023/09/02 04:55:26;;;;;;;45.45;17.55;;;15.10;99.90;;;;;;5042090;28;20037;-59
2023/09/02 04:57:53;;;;;;;49.75;18.13;;;15.10;99.90;;;;;;5037611;28;20018;-60
2023/09/02 05:00:19;;;;;;;43.33;17.23;;;15.00;99.90;;;;;;5040744;28;20033;-59
2023/09/02 05:02:46;;;;;;;45.28;18.30;;;15.00;99.90;;;;;;5038647;28;20041;-60
2023/09/02 05:05:14;;;;;;;39.78;16.92;;;15.00;99.90;;;;;;5042335;28;20040;-59
2023/09/02 05:07:40;;;;;;;44.80;16.85;;;15.10;99.90;;;;;;5040807;28;20033;-59
2023/09/02 05:10:06;;;;;;;51.22;17.95;;;15.10;99.90;;;;;;5041842;28;20571;-59
2023/09/02 05:12:33;;;;;;;38.38;15.75;;;15.10;99.90;;;;;;5037242;28;20507;-60
2023/09/02 05:14:59;;;;;;;37.58;16.73;;;15.10;99.90;;;;;;5041471;28;20033;-58
2023/09/02 05:17:25;;;;;;;46.10;16.77;;;15.10;99.90;;;;;;5034520;28;20025;-59
2023/09/02 05:19:51;;;;;;;37.25;15.68;;;15.10;99.90;;;;;;5037997;28;20055;-60
2023/09/02 05:22:17;;;;;;;40.30;16.17;;;15.10;99.90;;;;;;5038179;28;20112;-60
2023/09/02 05:24:42;;;;;;;38.83;16.65;;;15.10;99.90;;;;;;5048149;28;20044;-58
2023/09/02 05:27:08;;;;;;;31.50;14.18;;;15.20;99.90;;;;;;5050429;28;20131;-59
2023/09/02 05:29:33;;;;;;;40.65;16.30;;;15.20;99.90;;;;;;5042610;28;20025;-57
2023/09/02 05:31:59;;;;;;;34.10;15.98;;;15.20;99.90;;;;;;5039107;28;20063;-62
2023/09/02 05:34:24;;;;;;;45.88;17.05;;;15.20;99.90;;;;;;5038732;28;20044;-61
2023/09/02 05:36:50;;;;;;;40.47;16.45;;;15.20;99.90;;;;;;5041994;28;20029;-60
2023/09/02 05:39:15;;;;;;;56.92;18.90;;;15.20;99.90;;;;;;5038446;28;20029;-61
2023/09/02 05:41:43;;;;;;;46.83;17.13;;;15.30;99.90;;;;;;5034961;28;20025;-61
2023/09/02 05:44:09;;;;;;;45.70;17.88;;;15.30;99.90;;;;;;5028828;28;20048;-61
2023/09/02 05:46:34;;;;;;;53.80;19.65;;;15.40;99.90;;;;;;5035752;28;20043;-60
2023/09/02 05:49:00;;;;;;;46.40;19.02;;;15.40;99.90;;;;;;5040031;28;20509;-60
2023/09/02 05:51:25;;;;;;;40.80;16.33;;;15.50;99.90;;;;;;5045515;28;20044;-61
2023/09/02 05:53:51;;;;;;;42.55;18.10;;;15.50;99.90;;;;;;5044957;28;20029;-61
2023/09/02 05:56:16;;;;;;;44.92;18.60;;;15.60;99.90;;;;;;5045119;28;20024;-60
2023/09/02 05:58:42;;;;;;;57.47;20.55;;;15.60;99.90;;;;;;5035561;28;20491;-61
2023/09/02 06:01:08;;;;;;;49.28;19.13;;;15.60;99.90;;;;;;5046742;28;20372;-58
2023/09/02 06:03:33;;;;;;;67.10;19.67;;;15.60;99.90;;;;;;5035512;28;20032;-59
2023/09/02 06:05:59;;;;;;;58.30;21.02;;;15.60;99.90;;;;;;5038266;28;20032;-59
2023/09/02 06:08:24;;;;;;;49.80;20.25;;;15.70;99.90;;;;;;5039835;28;20029;-59
2023/09/02 06:10:59;;;;;;;48.20;19.27;;;15.70;99.90;;;;;;5035019;28;20029;-58
2023/09/02 06:13:25;;;;;;;47.10;19.25;;;15.80;99.90;;;;;;5041562;28;20029;-58
2023/09/02 06:15:51;;;;;;;44.03;18.67;;;15.80;99.90;;;;;;5036902;28;20083;-58
2023/09/02 06:18:17;;;;;;;49.83;19.77;;;15.90;99.90;;;;;;5035447;28;20030;-57
2023/09/02 06:20:42;;;;;;;43.88;18.55;;;15.90;99.90;;;;;;5038982;28;20110;-59
2023/09/02 06:23:08;;;;;;;51.10;20.10;;;15.90;99.90;;;;;;5036685;28;20063;-58
2023/09/02 06:25:33;;;;;;;53.95;20.70;;;16.00;99.90;;;;;;5037342;28;20033;-59
2023/09/02 06:27:59;;;;;;;50.13;19.38;;;16.00;99.90;;;;;;5039080;28;20032;-56
2023/09/02 06:30:24;;;;;;;47.60;20.02;;;15.90;99.90;;;;;;5042258;28;20033;-59
2023/09/02 06:32:50;;;;;;;40.15;19.35;;;15.90;99.90;;;;;;5038551;28;20064;-56
2023/09/02 06:35:16;;;;;;;49.97;20.42;;;15.90;99.90;;;;;;5039659;28;20503;-59
2023/09/02 06:37:42;;;;;;;49.65;19.80;;;15.80;99.90;;;;;;5043218;28;20037;-58
2023/09/02 06:40:08;;;;;;;47.05;20.35;;;15.90;99.90;;;;;;5041952;28;20033;-58
2023/09/02 06:42:33;;;;;;;47.50;20.00;;;16.00;99.90;;;;;;5037753;28;20383;-59
2023/09/02 06:44:59;;;;;;;44.00;19.42;;;16.10;99.90;;;;;;5038487;28;20090;-60
2023/09/02 06:47:24;;;;;;;48.53;19.63;;;16.00;99.90;;;;;;5037483;28;20058;-57
2023/09/02 06:49:50;;;;;;;38.47;18.27;;;16.10;99.90;;;;;;5040669;28;20029;-59
2023/09/02 06:52:16;;;;;;;41.80;19.35;;;16.20;99.90;;;;;;5037265;28;20053;-59
2023/09/02 06:54:41;;;;;;;36.30;16.95;;;16.10;99.90;;;;;;5038546;28;20509;-59
2023/09/02 06:57:07;;;;;;;35.53;17.95;;;16.20;99.90;;;;;;5037426;28;20096;-59
2023/09/02 06:59:35;;;;;;;33.92;16.25;;;16.30;99.90;;;;;;5042171;28;20442;-59
2023/09/02 07:02:02;;;;;;;33.20;15.55;;;16.30;99.90;;;;;;5033500;28;20509;-56
2023/09/02 07:04:28;;;;;;;36.10;16.75;;;16.40;99.90;;;;;;5038017;28;20043;-58
2023/09/02 07:06:53;;;;;;;37.25;18.20;;;16.40;99.90;;;;;;5039343;28;20033;-59
2023/09/02 07:09:19;;;;;;;33.08;16.90;;;16.40;99.90;;;;;;5031060;28;21762;-60
2023/09/02 07:11:44;;;;;;;30.67;16.13;;;16.50;99.90;;;;;;5028850;28;20933;-60
2023/09/02 07:14:10;;;;;;;42.25;17.50;;;16.60;99.90;;;;;;5031902;28;20563;-58
2023/09/02 07:16:35;;;;;;;31.60;16.17;;;16.60;99.90;;;;;;5038443;28;20112;-60
2023/09/02 07:19:03;;;;;;;29.85;16.13;;;16.60;99.90;;;;;;5035388;28;20492;-59
2023/09/02 07:21:29;;;;;;;32.22;15.70;;;16.70;99.90;;;;;;5036225;28;20116;-59
2023/09/02 07:23:55;;;;;;;28.15;14.90;;;16.80;99.90;;;;;;5035594;28;20489;-61
2023/09/02 07:26:21;;;;;;;30.00;15.93;;;16.90;99.90;;;;;;5033215;28;20121;-60
2023/09/02 07:28:46;;;;;;;35.85;17.75;;;16.90;99.90;;;;;;5049612;28;20530;-61
2023/09/02 07:31:12;;;;;;;34.83;16.52;;;16.80;99.90;;;;;;5050446;28;20039;-61
2023/09/02 07:33:38;;;;;;;33.50;16.10;;;17.00;99.90;;;;;;5055741;28;20029;-59
2023/09/02 07:36:11;;;;;;;28.92;15.38;;;17.10;99.90;;;;;;5043881;28;20110;-61
2023/09/02 07:38:38;;;;;;;32.95;17.95;;;17.20;99.90;;;;;;5032595;28;20029;-62
2023/09/02 07:41:03;;;;;;;29.58;16.48;;;17.20;99.90;;;;;;5035445;28;20026;-59
2023/09/02 07:43:29;;;;;;;37.28;18.05;;;17.30;99.90;;;;;;5037418;28;20040;-60
2023/09/02 07:45:55;;;;;;;30.65;17.42;;;17.20;99.90;;;;;;5036468;28;20021;-61
2023/09/02 07:48:21;;;;;;;32.50;18.02;;;17.20;99.90;;;;;;5039298;28;20030;-61
2023/09/02 07:50:47;;;;;;;28.80;16.77;;;17.30;99.90;;;;;;5043546;28;20372;-62
2023/09/02 07:53:13;;;;;;;30.98;18.60;;;17.40;99.90;;;;;;5033419;28;20105;-61
2023/09/02 07:55:39;;;;;;;26.10;16.33;;;17.40;99.90;;;;;;5037327;28;20029;-61
2023/09/02 07:58:05;;;;;;;25.52;15.77;;;17.50;99.90;;;;;;5039931;28;20029;-61
2023/09/02 08:00:33;;;;;;;25.65;15.30;;;17.60;99.90;;;;;;5040899;28;20029;-61
2023/09/02 08:02:59;;;;;;;24.95;12.90;;;17.60;99.90;;;;;;5038439;28;20506;-60
2023/09/02 08:05:24;;;;;;;23.23;12.63;;;17.70;99.90;;;;;;5033187;28;20064;-61
2023/09/02 08:07:50;;;;;;;19.27;11.98;;;17.70;99.90;;;;;;5043243;28;20033;-62
2023/09/02 08:10:16;;;;;;;23.15;13.13;;;17.80;99.90;;;;;;5039090;28;20030;-61
2023/09/02 08:12:42;;;;;;;19.33;11.38;;;17.80;99.90;;;;;;5038626;28;20641;-62
2023/09/02 08:15:09;;;;;;;22.55;12.15;;;17.90;99.90;;;;;;5034958;28;20100;-61
2023/09/02 08:17:37;;;;;;;26.02;13.73;;;17.90;99.90;;;;;;5033642;28;20036;-61
2023/09/02 08:20:03;;;;;;;23.70;12.93;;;17.90;99.90;;;;;;5038087;28;20033;-62
2023/09/02 08:22:29;;;;;;;19.20;11.88;;;18.00;99.90;;;;;;5036759;28;20029;-62
2023/09/02 08:24:55;;;;;;;22.67;13.20;;;18.00;99.90;;;;;;5034362;28;20025;-60
2023/09/02 08:27:21;;;;;;;19.95;13.65;;;18.10;99.90;;;;;;5036503;28;20594;-59
2023/09/02 08:29:47;;;;;;;22.90;13.73;;;18.10;99.90;;;;;;5033985;28;20066;-61
2023/09/02 08:32:12;;;;;;;22.27;13.23;;;18.10;99.90;;;;;;5043130;28;20503;-60
2023/09/02 08:34:38;;;;;;;22.17;12.93;;;18.20;99.90;;;;;;5044035;28;20393;-61
2023/09/02 08:37:03;;;;;;;17.23;12.70;;;18.30;99.90;;;;;;5035243;28;20470;-61
2023/09/02 08:39:29;;;;;;;16.92;12.05;;;18.30;99.90;;;;;;5041028;28;20096;-61
2023/09/02 08:41:55;;;;;;;17.55;12.68;;;18.40;99.90;;;;;;5041036;28;20024;-62
2023/09/02 08:44:25;;;;;;;17.88;10.77;;;18.40;99.90;;;;;;5039347;28;20462;-61
2023/09/02 08:46:51;;;;;;;16.70;10.60;;;18.50;99.90;;;;;;5031201;28;20523;-59
2023/09/02 08:49:19;;;;;;;15.45;10.20;;;18.50;99.90;;;;;;5034036;28;20033;-62
2023/09/02 08:51:46;;;;;;;18.33;10.32;;;18.60;99.90;;;;;;5031449;28;20057;-60
2023/09/02 08:54:13;;;;;;;14.52;9.88;;;18.70;99.90;;;;;;5035310;28;20113;-61
2023/09/02 08:56:43;;;;;;;13.70;9.25;;;18.70;99.90;;;;;;5037961;28;20032;-62
2023/09/02 08:59:13;;;;;;;12.82;9.00;;;18.90;99.90;;;;;;5040022;28;20033;-61
2023/09/02 09:01:43;;;;;;;13.73;9.27;;;19.00;99.90;;;;;;5037993;28;20037;-60
2023/09/02 09:04:09;;;;;;;10.55;8.30;;;19.10;99.90;;;;;;5040405;28;20040;-61
2023/09/02 09:06:36;;;;;;;8.90;6.75;;;19.10;99.90;;;;;;5043092;28;20094;-62
2023/09/02 09:09:03;;;;;;;11.05;7.15;;;19.10;99.90;;;;;;5046051;28;20025;-61
2023/09/02 09:11:32;;;;;;;12.95;7.85;;;19.20;99.90;;;;;;5044037;28;20040;-61
2023/09/02 09:14:01;;;;;;;8.10;5.95;;;19.20;99.90;;;;;;5040367;28;20022;-61
2023/09/02 09:16:33;;;;;;;8.13;6.18;;;19.30;99.90;;;;;;5046297;28;20029;-61
2023/09/02 09:19:00;;;;;;;8.82;5.70;;;19.50;99.90;;;;;;5037875;28;20096;-59
2023/09/02 09:21:26;;;;;;;7.93;4.20;;;19.60;99.90;;;;;;5040694;28;20107;-60
2023/09/02 09:23:51;;;;;;;6.53;4.30;;;19.70;99.90;;;;;;5041190;28;20499;-60
2023/09/02 09:26:18;;;;;;;9.73;3.92;;;19.90;99.90;;;;;;5043634;28;20025;-60
2023/09/02 09:28:58;;;;;;;7.57;5.40;;;20.00;99.90;;;;;;5035301;28;20452;-60
2023/09/02 09:31:24;;;;;;;8.20;5.05;;;20.00;99.90;;;;;;5036751;28;20388;-60
2023/09/02 09:34:00;;;;;;;6.90;4.55;;;20.20;99.90;;;;;;5037750;28;20029;-60
2023/09/02 09:36:28;;;;;;;6.53;4.63;;;20.50;99.90;;;;;;5041612;28;20021;-60
2023/09/02 09:38:55;;;;;;;10.90;5.00;;;20.50;99.90;;;;;;5034116;28;20024;-60
2023/09/02 09:41:23;;;;;;;8.02;4.70;;;20.60;99.90;;;;;;5039681;28;20045;-61
2023/09/02 09:44:10;;;;;;;7.80;4.93;;;20.60;99.90;;;;;;5042535;28;20021;-61
2023/09/02 09:46:49;;;;;;;6.43;4.38;;;20.80;99.90;;;;;;5035770;28;20431;-61
2023/09/02 09:49:31;;;;;;;4.25;3.35;;;20.80;99.90;;;;;;5042323;28;20049;-59
2023/09/02 09:51:59;;;;;;;6.90;4.07;;;21.00;99.90;;;;;;5040335;28;20072;-61
2023/09/02 09:54:38;;;;;;;8.73;3.95;;;21.20;99.90;;;;;;5041890;28;20036;-59
2023/09/02 09:57:05;;;;;;;5.85;3.92;;;21.40;99.90;;;;;;5043038;28;20154;-61
2023/09/02 09:59:35;;;;;;;5.50;4.55;;;21.70;99.90;;;;;;5047421;28;20027;-60
2023/09/02 10:02:05;;;;;;;5.72;2.70;;;22.00;99.90;;;;;;5043173;28;20114;-59
2023/09/02 10:04:31;;;;;;;6.72;2.70;;;22.30;99.90;;;;;;5041655;28;20295;-60
2023/09/02 10:06:59;;;;;;;2.45;2.08;;;22.50;99.90;;;;;;5034856;28;20156;-60
2023/09/02 10:09:43;;;;;;;5.45;2.25;;;22.50;99.90;;;;;;5036986;28;20036;-64
2023/09/02 10:12:13;;;;;;;3.85;2.30;;;22.40;99.90;;;;;;5032692;28;20013;-61
2023/09/02 10:14:43;;;;;;;3.53;2.25;;;22.50;99.90;;;;;;5038721;28;20033;-61
2023/09/02 10:17:10;;;;;;;3.13;2.17;;;22.50;99.90;;;;;;5044749;28;20028;-60
2023/09/02 10:19:36;;;;;;;3.40;1.70;;;22.70;99.90;;;;;;5039735;28;20195;-60
2023/09/02 10:22:03;;;;;;;6.90;1.95;;;22.70;99.90;;;;;;5040681;28;20033;-60
2023/09/02 10:24:35;;;;;;;5.00;1.80;;;22.80;99.90;;;;;;5038896;28;20029;-60
2023/09/02 10:27:10;;;;;;;1.55;1.45;;;22.90;99.90;;;;;;5041942;28;20028;-60
2023/09/02 10:29:42;;;;;;;3.55;1.73;;;23.20;99.90;;;;;;5035925;28;20029;-61
2023/09/02 10:32:15;;;;;;;2.95;1.85;;;23.30;99.90;;;;;;5042438;28;20556;-60
2023/09/02 10:34:52;;;;;;;2.35;1.70;;;23.60;99.90;;;;;;5038979;28;20040;-60
2023/09/02 10:37:24;;;;;;;2.67;1.52;;;23.50;99.90;;;;;;5036610;28;20378;-60
2023/09/02 10:40:04;;;;;;;1.73;1.38;;;23.60;99.90;;;;;;5039555;28;20091;-61
2023/09/02 10:42:30;;;;;;;2.00;1.80;;;23.90;99.90;;;;;;5040063;28;20025;-61
2023/09/02 10:44:56;;;;;;;1.70;1.25;;;24.00;99.90;;;;;;5043566;28;20139;-60
2023/09/02 10:47:22;;;;;;;1.98;1.30;;;24.10;99.90;;;;;;5030395;28;20499;-60
2023/09/02 10:49:49;;;;;;;1.75;1.40;;;24.30;99.90;;;;;;5037822;28;20033;-60
2023/09/02 10:52:15;;;;;;;3.17;1.65;;;24.60;99.90;;;;;;5036849;28;20021;-61
2023/09/02 10:55:03;;;;;;;3.83;1.30;;;24.70;99.90;;;;;;5037161;28;20025;-61
2023/09/02 10:57:43;;;;;;;2.15;1.30;;;24.80;99.90;;;;;;5036549;28;20498;-60
2023/09/02 11:00:17;;;;;;;2.63;1.35;;;24.90;99.90;;;;;;5039967;28;20020;-63
2023/09/02 11:02:44;;;;;;;1.63;1.30;;;25.00;99.90;;;;;;5039638;28;20352;-62
2023/09/02 11:05:10;;;;;;;4.03;1.40;;;25.20;99.90;;;;;;5041942;28;20028;-61
2023/09/02 11:07:40;;;;;;;3.00;1.35;;;25.00;99.90;;;;;;5044267;28;20509;-61
2023/09/02 11:10:07;;;;;;;2.92;1.20;;;24.60;99.90;;;;;;5033052;28;20052;-60
2023/09/02 11:12:33;;;;;;;3.28;1.13;;;24.70;99.90;;;;;;5040406;28;20029;-61
2023/09/02 11:15:08;;;;;;;1.95;1.05;;;24.90;99.90;;;;;;5047361;28;20095;-60
2023/09/02 11:17:38;;;;;;;2.00;1.42;;;24.90;99.90;;;;;;5044193;28;20097;-61
2023/09/02 11:20:11;;;;;;;11.63;1.48;;;24.80;99.90;;;;;;5045833;28;20039;-61
2023/09/02 11:23:04;;;;;;;3.38;1.23;;;25.10;99.90;;;;;;5038931;28;20056;-61
2023/09/02 11:25:33;;;;;;;1.77;1.17;;;25.30;99.90;;;;;;5040403;28;20083;-60
2023/09/02 11:28:17;;;;;;;2.10;1.20;;;25.30;99.90;;;;;;5032057;28;20025;-60
2023/09/02 11:31:01;;;;;;;;;;;25.00;99.90;;;;;;5038382;28;20032;-60
2023/09/02 11:33:26;;;;;;;1.67;1.13;;;24.90;99.90;;;;;;5038360;28;19909;-60
2023/09/02 11:35:52;;;;;;;3.10;1.48;;;24.50;99.90;;;;;;5035841;28;20369;-60
2023/09/02 11:38:21;;;;;;;3.88;1.38;;;24.70;99.90;;;;;;5037112;28;20801;-60
2023/09/02 11:40:47;;;;;;;2.65;1.15;;;25.10;99.90;;;;;;5036056;28;20036;-60
2023/09/02 11:43:18;;;;;;;3.08;1.40;;;25.40;99.90;;;;;;5036463;28;20033;-59
2023/09/02 11:45:45;;;;;;;3.70;1.33;;;26.10;99.90;;;;;;5037375;28;20033;-61
2023/09/02 11:48:11;;;;;;;4.80;1.45;;;26.20;99.90;;;;;;5038221;28;20033;-60
2023/09/02 11:50:39;;;;;;;3.35;1.10;;;26.00;99.90;;;;;;5043075;28;20032;-61
2023/09/02 11:53:06;;;;;;;1.65;1.20;;;25.90;99.90;;;;;;5040701;28;20496;-59
2023/09/02 11:55:31;;;;;;;2.55;1.45;;;26.00;99.90;;;;;;5031597;28;20116;-58
2023/09/02 11:58:05;;;;;;;1.58;1.10;;;26.10;99.90;;;;;;5040211;28;20096;-60
2023/09/02 12:00:31;;;;;;;3.22;1.23;;;26.10;99.90;;;;;;5041015;28;20779;-60
2023/09/02 12:02:59;;;;;;;6.20;1.85;;;26.30;99.90;;;;;;5030646;28;20048;-58
2023/09/02 12:05:25;;;;;;;3.33;1.35;;;27.00;99.90;;;;;;5035355;28;20072;-59
2023/09/02 12:07:51;;;;;;;3.80;1.25;;;27.10;99.90;;;;;;5040761;28;20048;-60
2023/09/02 12:10:17;;;;;;;2.20;1.23;;;27.50;99.90;;;;;;5034532;28;20037;-55
2023/09/02 12:12:47;;;;;;;2.38;1.58;;;27.60;99.90;;;;;;5041719;28;20036;-57
2023/09/02 12:15:18;;;;;;;2.15;1.35;;;27.60;99.90;;;;;;5040283;28;20483;-59
2023/09/02 12:17:45;;;;;;;3.25;1.45;;;26.80;99.90;;;;;;5041882;28;20039;-57
2023/09/02 12:20:12;;;;;;;4.57;1.63;;;26.60;99.90;;;;;;5036204;28;20068;-59
2023/09/02 12:22:39;;;;;;;2.53;1.10;;;26.10;99.90;;;;;;5037186;28;20593;-62
2023/09/02 12:25:17;;;;;;;7.28;1.90;;;25.90;99.90;;;;;;5030890;28;20517;-55
2023/09/02 12:27:42;;;;;;;4.55;1.50;;;25.60;99.90;;;;;;5034036;28;20601;-60
2023/09/02 12:30:10;;;;;;;2.80;1.40;;;25.80;99.90;;;;;;5036326;28;20025;-59
2023/09/02 12:32:35;;;;;;;2.35;1.48;;;26.20;99.90;;;;;;5040122;28;20105;-59
2023/09/02 12:35:09;;;;;;;3.90;1.33;;;26.40;99.90;;;;;;5040080;28;20104;-59
2023/09/02 12:37:35;;;;;;;3.78;1.58;;;26.50;99.90;;;;;;5042795;28;20052;-59